Tiempo atmosférico en la estación meteorológica de Aguilar De Campoo, Palencia (910 m.)



Fecha
DESCASC
Temp. máxima en grados centígrados (hora)
DESCASC
Temp. mínima en grados centígrados (hora)
DESCASC
Temp. media en grados centígrados
DESCASC
Racha de viento máxima en m/sg (hora)
DESCASC
Velocidad máxima media en intervalos de 10 minutos(hora)
DESCASC
Precipitaciones diarias en mm
DESCASC
Precipitaciones de 00:00 a 06:00 en mm
DESCASC
Precipitaciones de 06:00 a 12:00 en mm
DESCASC
Precipitaciones de 12:00 a 18:00 en mm
DESCASC
Precipitaciones de 18:00 a 24:00 en mm
DESCASC
20-05-2018 19.5 (16:50) 2.2 (06:50) 10.9 10 (16:20) 5.83 (16:20) 0 0 0 0 0
19-05-2018 20 (15:50) 4.1 (07:20) 12 11.11 (18:10) 5.83 (16:50) 0 0 0 0 0
18-05-2018 17.8 (17:20) 9.2 (00:00) 13.5 12.5 (16:20) 5.56 (14:50) 0 0 0 0 0
17-05-2018 18 (15:40) 3.1 (00:00) 10.5 11.39 (17:10) 6.94 (14:50) 0 0 0 0 0
16-05-2018 17.1 (16:40) 1.7 (00:00) 9.4 11.11 (10:30) 6.67 (13:30) 0 0 0 0 0
15-05-2018 16.6 (15:40) -0.4 (00:00) 8.1 13.06 (17:30) 7.5 (16:00) 0 0 0 0 0
14-05-2018 13.4 (15:50) 4.4 (00:00) 8.9 12.22 (17:40) 6.11 (17:20) 4.4 3 1.2 0.2 0
13-05-2018 13.4 (15:20) -3.3 (-00:0) 5 7.5 (13:30) 3.89 (13:00) 0 0 0 0 0
12-05-2018 10.9 (15:00) 0.3 (00:00) 5.6 13.33 (14:40) 6.67 (14:40) 1 0 0.8 0.2 0
11-05-2018 20.4 (15:30) 0 (07:00) 10.2 11.11 (15:20) 6.11 (16:30) 0 0 0 0 0
10-05-2018 13 (18:40) 1.4 (00:00) 7.2 12.78 (13:50) 6.67 (13:20) 0 0 0 0 0
09-05-2018 19 (15:20) 2.9 (00:00) 11 10.56 (17:50) 6.11 (16:20) 0 0 0 0 0
08-05-2018 17.1 (13:30) 4.9 (00:00) 11 13.06 (16:40) 7.22 (17:20) 0 0 0 0 0
07-05-2018 23.5 (15:50) 6.4 (00:00) 15 9.44 (18:20) 5.28 (18:20) 0 0 0 0 0
06-05-2018 23.2 (17:20) 4.9 (00:00) 14.1 8.06 (18:50) 4.44 (02:20) 0.2 0 0 0.2 0
05-05-2018 17.1 (17:30) 1.7 (00:00) 9.4 11.67 (13:30) 6.67 (13:30) 0 0 0 0 0
04-05-2018 11.6 (17:10) 4.2 (00:00) 7.9 11.94 (13:00) 6.39 (19:00) 0 0 0 0 0
03-05-2018 10.9 (14:40) 4.1 (00:00) 7.5 13.89 (14:50) 6.94 (15:40) 0 0 0 0 0
02-05-2018 13.5 (16:10) 5.9 (00:00) 9.7 7.78 (10:30) 4.72 (08:30) 0 0 0 0 0
01-05-2018 12.6 (18:10) -2.7 (07:20) 5 7.78 (18:10) 3.89 (19:50) 0 0 0 0 0
30-04-2018 6.9 (17:50) -0.1 (00:00) 3.4 8.89 (17:10) 4.72 (19:10) 3.6 2 0.2 1.4 0
29-04-2018 11.1 (16:00) 0.3 (00:00) 5.7 11.11 (18:20) 6.67 (16:50) 5 0 0 0 5
28-04-2018 12.2 (16:50) 4 (00:00) 8.1 11.39 (18:10) 6.39 (18:10) 0 0 0 0 0
27-04-2018 14.9 (14:10) 3.2 (00:00) 9 12.22 (16:40) 7.5 (17:20) 0 0 0 0 0
26-04-2018 16.8 (19:20) 6.2 (00:00) 11.5 11.11 (12:30) 6.39 (12:40) 0 0 0 0 0
25-04-2018 15.8 (15:10) 7.8 (00:00) 11.8 14.17 (16:20) 8.33 (18:20) 0 0 0 0 0
24-04-2018 24.8 (16:40) 7.5 (00:00) 16.1 7.78 (19:50) 4.17 (20:00) 0 0 0 0 0
23-04-2018 20.5 (17:10) 5.2 (00:00) 12.8 9.44 (17:50) 5.56 (17:50) 0 0 0 0 0
22-04-2018 20.7 (16:00) 6.2 (00:00) 13.5 7.22 (11:30) 4.72 (11:30) 0.6 0 0 0 0.6

Gráficas

Temp. máximas Temp. mínimas Temp. medias Precipitaciones Rachas de viento máximas Velocidades máximas media en intervalos de 10 minutos

Datos horarios

Fecha y hora oficial Temperatura (ºC) Velocidad del viento (km/h) Dirección del viento Racha (km/h) Dirección de racha Precipitación (mm) Presión (hPa) Tendencia (hPa) Humedad (%)
2018-05-21 23:00:00 -- -- -- -- -- -- -- -- --
2018-05-21 22:00:00 13.9 8 Sur 19 Sur 0 -- -- 84
2018-05-21 21:00:00 14.5 13 Sur 30 Sudeste 0 -- -- 82
2018-05-21 20:00:00 16.3 15 Sudeste 33 Sur 0 -- -- 78
2018-05-21 19:00:00 17.5 11 Sudeste 32 Sudeste 0 -- -- 67
2018-05-21 18:00:00 19.4 12 Sudeste 17 Sudeste 0 -- -- 55
2018-05-21 17:00:00 16.6 4 Este 19 Nordeste 0.2 -- -- 67
2018-05-21 16:00:00 18.1 6 Este 18 Sudeste 0 -- -- 52
2018-05-21 15:00:00 19.5 11 Sudeste 32 Este 0 -- -- 44
2018-05-21 14:00:00 21 8 Norte 33 Noroeste 0 -- -- 41
2018-05-21 13:00:00 20.8 9 Noroeste 22 Oeste 0 -- -- 48
2018-05-21 12:00:00 18.7 8 Oeste 21 Oeste 0 -- -- 54
2018-05-21 11:00:00 16.7 11 Noroeste 21 Noroeste 0 -- -- 62
2018-05-21 10:00:00 13.4 5 Noroeste 16 Oeste 0 -- -- 76
2018-05-21 09:00:00 9.4 2 Sudoeste 6 Este 0 -- -- 89
2018-05-21 08:00:00 4.6 4 Sudeste 8 Este 0 -- -- 97
2018-05-21 07:00:00 3.5 0 Calma 7 Este 0 -- -- 94
2018-05-21 06:00:00 4.1 3 Norte 8 Este 0 -- -- 94
2018-05-21 05:00:00 4.7 2 Este 5 Este 0 -- -- 92
2018-05-21 04:00:00 5.7 0 Calma 9 Este 0 -- -- 92
2018-05-21 03:00:00 6.8 3 Este 13 Este 0 -- -- 92
2018-05-21 02:00:00 7.7 6 Este 11 Este 0 -- -- 92
2018-05-21 01:00:00 8.9 0 Calma 11 Sudeste 0 -- -- 87
2018-05-21 00:00:00 10.2 7 Sur 14 Sudeste 0 -- -- 88
2018-05-20 23:00:00 11.1 12 Sudeste 21 Sur 0 -- -- 84
2018-05-20 22:00:00 12.3 11 Sudeste 22 Sudeste 0 -- -- 80
2018-05-20 21:00:00 14.7 12 Sur 24 Sudeste 0 -- -- 70
2018-05-20 20:00:00 17 13 Sudeste 27 Sur 0 -- -- 59
2018-05-20 19:00:00 18.7 11 Sudeste 31 Sudeste 0 -- -- 53
2018-05-20 18:00:00 19 19 Sudeste 34 Sur 0 -- -- 50
2018-05-20 17:00:00 19.4 16 Sudeste 36 Sudeste 0 -- -- 47
2018-05-20 16:00:00 19.3 18 Sudeste 31 Sur 0 -- -- 43
2018-05-20 15:00:00 18.9 14 Sudeste 32 Sur 0 -- -- 38
2018-05-20 14:00:00 17.9 12 Sudeste 34 Este 0 -- -- 38
2018-05-20 13:00:00 17 17 Sudeste 32 Sur 0 -- -- 40
2018-05-20 12:00:00 15.7 14 Sudeste 27 Sudeste 0 -- -- 41
2018-05-20 11:00:00 14 13 Sur 22 Sudeste 0 -- -- 53
2018-05-20 10:00:00 10.5 3 Sudoeste 11 Sudeste 0 -- -- 74
2018-05-20 09:00:00 6.9 0 Calma 6 Sudeste 0 -- -- 99
2018-05-20 08:00:00 3.3 4 Este 15 Este 0 -- -- 99
2018-05-20 07:00:00 2.2 5 Este 14 Este 0 -- -- 98
2018-05-20 06:00:00 3.4 6 Este 16 Este 0 -- -- 97
2018-05-20 05:00:00 4.4 3 Este 12 Este 0 -- -- 94
2018-05-20 04:00:00 5.1 2 Noroeste 4 Este 0 -- -- 93
2018-05-20 03:00:00 6.6 0 Calma 12 Sudeste 0 -- -- 91
2018-05-20 02:00:00 8.3 2 Sudeste 19 Sur 0 -- -- 87
2018-05-20 01:00:00 9.6 9 Sur 20 Sur 0 -- -- 88
2018-05-20 00:00:00 10.6 5 Sur 26 Sudeste 0 -- -- 85
2018-05-19 23:00:00 11.3 9 Sur 20 Sudeste 0 -- -- 85
2018-05-19 22:00:00 12.3 7 Sudeste 27 Sudeste 0 -- -- 82
2018-05-19 21:00:00 13.7 9 Sudeste 33 Sudeste 0 -- -- 75
2018-05-19 20:00:00 15.9 17 Sur 33 Sudeste 0 -- -- 68
2018-05-19 19:00:00 17.6 19 Sur 40 Sur 0 -- -- 59
2018-05-19 18:00:00 19 19 Sur 34 Sudeste 0 -- -- 56
2018-05-19 17:00:00 19.7 18 Sur 35 Sur 0 -- -- 54
2018-05-19 16:00:00 19.8 18 Sudeste 36 Sudeste 0 -- -- 52
2018-05-19 15:00:00 19.4 16 Sudeste 30 Sudeste 0 -- -- 55
2018-05-19 14:00:00 19.2 14 Sur 29 Sur 0 -- -- 51
2018-05-19 13:00:00 18.4 15 Sur 29 Este 0 -- -- 56
2018-05-19 12:00:00 17.7 13 Sur 28 Sur 0 -- -- 61
2018-05-19 11:00:00 16.1 12 Sudeste 24 Sudeste 0 -- -- 66
2018-05-19 10:00:00 14.2 13 Sur 21 Sur 0 -- -- 75
2018-05-19 09:00:00 10 0 Calma 10 Sudeste 0 -- -- 88
2018-05-19 08:00:00 5.6 4 Nordeste 10 Este 0 -- -- 94
2018-05-19 07:00:00 4.4 4 Este 17 Este 0 -- -- 92
2018-05-19 06:00:00 5 6 Este 13 Este 0 -- -- 95
2018-05-19 05:00:00 5.7 0 Calma 8 Norte 0 -- -- 93
2018-05-19 04:00:00 6.9 4 Norte 9 Norte 0 -- -- 94
2018-05-19 03:00:00 7.3 5 Sudeste 17 Sudeste 0 -- -- 93
2018-05-19 02:00:00 7.3 8 Sudeste 10 Este 0 -- -- 94
2018-05-19 01:00:00 8.3 3 Sudeste 10 Sudeste 0 -- -- 92
2018-05-19 00:00:00 9.5 0 Calma 18 Sudeste 0 -- -- 91
2018-05-18 23:00:00 10.7 7 Sudeste 18 Sur 0 -- -- 92
2018-05-18 22:00:00 12.1 5 Sur 23 Sur 0 -- -- 85
2018-05-18 21:00:00 14.1 10 Sudeste 30 Sur 0 -- -- 74
2018-05-18 20:00:00 15.9 16 Sur 31 Sudeste 0 -- -- 64
2018-05-18 19:00:00 17.2 13 Sudeste 30 Este 0 -- -- 62
2018-05-18 18:00:00 17.7 13 Sudeste 37 Sur 0 -- -- 63
2018-05-18 17:00:00 17.7 12 Sudeste 45 Sur 0 -- -- 60
2018-05-18 16:00:00 17.2 19 Sur 37 Sur 0 -- -- 59
2018-05-18 15:00:00 17 18 Sudeste 40 Sur 0 -- -- 63
2018-05-18 14:00:00 15.9 15 Sudeste 37 Sudeste 0 -- -- 65
2018-05-18 13:00:00 16.1 12 Sudeste 33 Sudeste 0 -- -- 65
2018-05-18 12:00:00 14.8 15 Sudeste 30 Sur 0 -- -- 67
2018-05-18 11:00:00 13.2 15 Sur 27 Sudeste 0 -- -- 70
2018-05-18 10:00:00 12.3 9 Sudeste 28 Sudeste 0 -- -- 76
2018-05-18 09:00:00 11.3 6 Sudeste 18 Sur 0 -- -- 81
2018-05-18 08:00:00 10.1 10 Sudeste 17 Sudeste 0 -- -- 85
2018-05-18 07:00:00 9.9 6 Sudeste 18 Sur 0 -- -- 86
2018-05-18 06:00:00 9.7 6 Sudeste 18 Sur 0 -- -- 88
2018-05-18 05:00:00 9.7 9 Sudeste 23 Sudeste 0 -- -- 89
2018-05-18 04:00:00 9.3 11 Sur 25 Sur 0 -- -- 91
2018-05-18 03:00:00 9.5 8 Sur 16 Sur 0 -- -- 90
2018-05-18 02:00:00 10 9 Sur 18 Sur 0 -- -- 88
2018-05-18 01:00:00 10.3 5 Sudoeste 11 Sur 0 -- -- 88
2018-05-18 00:00:00 10.6 7 Sur 12 Sudoeste 0 -- -- 87
2018-05-17 23:00:00 10.9 6 Sur 13 Sudeste 0 -- -- 83
2018-05-17 22:00:00 11.5 11 Sudeste 22 Sudeste 0 -- -- 80
2018-05-17 21:00:00 12.6 8 Sudeste 25 Este 0 -- -- 76
2018-05-17 20:00:00 13.8 11 Sudeste 29 Sudeste 0 -- -- 69
2018-05-17 19:00:00 15.3 18 Sudeste 37 Sudeste 0 -- -- 63
2018-05-17 18:00:00 16.2 20 Sudeste 41 Sur 0 -- -- 61
2018-05-17 17:00:00 17.3 17 Sudeste 38 Sudeste 0 -- -- 57
2018-05-17 16:00:00 17.7 23 Sur 37 Este 0 -- -- 56
2018-05-17 15:00:00 17.7 21 Sur 38 Sur 0 -- -- 53
2018-05-17 14:00:00 17.4 19 Sudeste 35 Sur 0 -- -- 53
2018-05-17 13:00:00 16.7 14 Sudeste 37 Sur 0 -- -- 62
2018-05-17 12:00:00 15.8 18 Sudeste 33 Sudeste 0 -- -- 60
2018-05-17 11:00:00 14.8 13 Sudeste 30 Sur 0 -- -- 60
2018-05-17 10:00:00 13 14 Sur 25 Sur 0 -- -- 68
2018-05-17 09:00:00 9.6 7 Sur 17 Sur 0 -- -- 86
2018-05-17 08:00:00 4.1 4 Sudeste 9 Sur 0 -- -- 100
2018-05-17 07:00:00 3.4 5 Este 12 Este 0 -- -- 98
2018-05-17 06:00:00 3.9 4 Este 17 Este 0 -- -- 98
2018-05-17 05:00:00 4.9 10 Este 15 Sudeste 0 -- -- 95
2018-05-17 04:00:00 6.4 6 Sudeste 16 Sur 0 -- -- 94
2018-05-17 03:00:00 7.2 10 Sur 28 Sur 0 -- -- 95
2018-05-17 02:00:00 7.6 10 Sur 25 Sudeste 0 -- -- 93
2018-05-17 01:00:00 8.2 11 Sur 22 Sur 0 -- -- 92
2018-05-17 00:00:00 8.5 9 Sur 19 Sudeste 0 -- -- 93
2018-05-16 23:00:00 8.9 6 Sur 23 Sur 0 -- -- 90
2018-05-16 22:00:00 9.9 12 Sur 29 Sudeste 0 -- -- 87
2018-05-16 21:00:00 12 15 Sur 29 Este 0 -- -- 80
2018-05-16 20:00:00 14.3 12 Sudeste 32 Sur 0 -- -- 73
2018-05-16 19:00:00 15.7 19 Sur 36 Sur 0 -- -- 64
2018-05-16 18:00:00 16.2 18 Sudeste 38 Sur 0 -- -- 66
2018-05-16 17:00:00 16.8 20 Sudeste 40 Sudeste 0 -- -- 61
2018-05-16 16:00:00 16.6 19 Sur 40 Sudeste 0 -- -- 62
2018-05-16 15:00:00 16.2 21 Sur 39 Sudeste 0 -- -- 60
2018-05-16 14:00:00 15.1 20 Sur 39 Sudeste 0 -- -- 62
2018-05-16 13:00:00 14 21 Sudeste 36 Sudeste 0 -- -- 66
2018-05-16 12:00:00 12.9 18 Sur 36 Sur 0 -- -- 66
2018-05-16 11:00:00 11.8 18 Sur 40 Sur 0 -- -- 67
2018-05-16 10:00:00 10.5 15 Sur 30 Sur 0 -- -- 71
2018-05-16 09:00:00 8.1 10 Sur 19 Sur 0 -- -- 84
2018-05-16 08:00:00 2.7 4 Sudeste 10 Sudeste 0 -- -- 95
2018-05-16 07:00:00 2.4 6 Este 12 Este 0 -- -- 93
2018-05-16 06:00:00 2.9 2 Nordeste 19 Este 0 -- -- 93
2018-05-16 05:00:00 2.8 11 Sudeste 20 Sudeste 0 -- -- 93
2018-05-16 04:00:00 4.6 5 Sudeste 16 Sur 0 -- -- 91
2018-05-16 03:00:00 5.2 13 Sudeste 24 Sur 0 -- -- 89
2018-05-16 02:00:00 5.2 9 Sudeste 24 Sudeste 0 -- -- 90
2018-05-16 01:00:00 5.6 13 Sur 29 Sudeste 0 -- -- 88
2018-05-16 00:00:00 6.2 11 Sudeste 31 Sudeste 0 -- -- 86
2018-05-15 23:00:00 7.1 14 Sur 31 Sudeste 0 -- -- 83
2018-05-15 22:00:00 8.2 17 Sur 35 Sudeste 0 -- -- 71
2018-05-15 21:00:00 9.9 22 Sudeste 42 Sudeste 0 -- -- 63
2018-05-15 20:00:00 11.6 23 Sur 41 Sur 0 -- -- 56
2018-05-15 19:00:00 13.1 21 Sur 42 Sudeste 0 -- -- 56
2018-05-15 18:00:00 14.3 23 Sur 47 Sur 0 -- -- 54
2018-05-15 17:00:00 15 22 Sur 44 Sur 0 -- -- 52
2018-05-15 16:00:00 15.8 27 Sur 42 Sudeste 0 -- -- 52
2018-05-15 15:00:00 16 22 Sudeste 45 Sudeste 0 -- -- 47
2018-05-15 14:00:00 14.6 19 Sur 33 Sur 0 -- -- 50
2018-05-15 13:00:00 12.4 17 Sur 29 Sur 0 -- -- 56
2018-05-15 12:00:00 13.3 17 Sur 31 Sur 0 -- -- 50
2018-05-15 11:00:00 10.6 9 Sur 20 Sudeste 0 -- -- 58
2018-05-15 10:00:00 7.3 7 Sudeste 15 Sur 0 -- -- 75
2018-05-15 09:00:00 2.6 3 Norte 12 Este 0 -- -- 93
2018-05-15 08:00:00 0.8 6 Este 16 Este 0 -- -- 95
2018-05-15 07:00:00 -0.2 6 Este 12 Sudeste 0 -- -- 95
2018-05-15 06:00:00 0.5 6 Este 12 Sudeste 0 -- -- 91
2018-05-15 05:00:00 2 4 Sur 7 Sur 0 -- -- 92
2018-05-15 04:00:00 3.2 4 Norte 22 Sudeste 0 -- -- 85
2018-05-15 03:00:00 4.1 12 Sudeste 28 Sudeste 0 -- -- 83
2018-05-15 02:00:00 4.5 18 Sur 29 Sur 0 -- -- 84
2018-05-15 01:00:00 4.7 6 Sudeste 19 Sur 0 -- -- 79
2018-05-15 00:00:00 5.2 3 Oeste 21 Sudeste 0 -- -- 75
2018-05-14 23:00:00 5.8 9 Sudeste 24 Sur 0 -- -- 78
2018-05-14 22:00:00 7 12 Sur 23 Sur 0 -- -- 75
2018-05-14 21:00:00 9.2 12 Sur 27 Sudeste 0 -- -- 62
2018-05-14 20:00:00 11 16 Sur 32 Sur 0 -- -- 58
2018-05-14 19:00:00 12.3 17 Sur 39 Sur 0 -- -- 52
2018-05-14 18:00:00 12.8 16 Sudeste 44 Sur 0 -- -- 54
2018-05-14 17:00:00 12.9 18 Sur 36 Sur 0 -- -- 52
2018-05-14 16:00:00 13.2 19 Sudeste 40 Sudeste 0 -- -- 60
2018-05-14 15:00:00 12.6 20 Sudeste 44 Sudeste 0 -- -- 56
2018-05-14 14:00:00 12.4 18 Sudeste 39 Sudeste 0 -- -- 63
2018-05-14 13:00:00 11.5 19 Sur 33 Sudeste 0.2 -- -- 78
2018-05-14 12:00:00 8.9 8 Sur 20 Sur 0.2 -- -- 85
2018-05-14 11:00:00 9.1 4 Sur 11 Nordeste 0 -- -- 78
2018-05-14 10:00:00 8 6 Norte 12 Norte 0 -- -- 84
2018-05-14 09:00:00 5.1 3 Nordeste 10 Nordeste 0 -- -- 92
2018-05-14 08:00:00 4.7 4 Nordeste 9 Nordeste 0.2 -- -- 94
2018-05-14 07:00:00 4.4 2 Sudeste 6 Sudeste 0.8 -- -- 94
2018-05-14 06:00:00 5 2 Nordeste 4 Nordeste 1.4 -- -- 94
2018-05-14 05:00:00 5.3 3 Este 5 Este 0.6 -- -- 95
2018-05-14 04:00:00 5.2 0 Calma 4 Este 0.4 -- -- 94
2018-05-14 03:00:00 5.1 2 Este 5 Este 0.4 -- -- 94
2018-05-14 02:00:00 5.3 2 Este 6 Este 0.2 -- -- 93
2018-05-14 01:00:00 5.4 4 Sudeste 10 Sudeste 0 -- -- 91
2018-05-11 20:00:00 -- -- -- -- -- -- -- -- --
2018-05-11 19:00:00 -- -- -- -- -- -- -- -- --
2018-05-11 18:00:00 18.7 12 Norte 25 Norte 0 -- -- 48
2018-05-11 17:00:00 19.5 14 Norte 35 Norte 0 -- -- 46
2018-05-11 16:00:00 19.4 17 Norte 40 Noroeste 0 -- -- 44
2018-05-11 15:00:00 20.1 18 Noroeste 37 Oeste 0 -- -- 50
2018-05-11 14:00:00 18.7 12 Norte 30 Noroeste 0 -- -- 51
2018-05-11 13:00:00 18.2 13 Noroeste 28 Oeste 0 -- -- 49
2018-05-11 12:00:00 16.6 13 Noroeste 29 Oeste 0 -- -- 51
2018-05-11 11:00:00 14.9 12 Oeste 23 Norte 0 -- -- 56
2018-05-11 10:00:00 13.4 11 Noroeste 22 Norte 0 -- -- 59
2018-05-11 09:00:00 7.5 3 Sudoeste 9 Este 0 -- -- 85
2018-05-11 08:00:00 2.1 7 Este 16 Este 0 -- -- 97
2018-05-11 07:00:00 0 0 Calma 5 Sudeste 0 -- -- 95
2018-05-11 06:00:00 0.7 0 Calma 9 Este 0 -- -- 95
2018-05-11 05:00:00 0.8 0 Calma 13 Este 0 -- -- 93
2018-05-11 04:00:00 1.6 5 Este 12 Este 0 -- -- 96
2018-05-11 03:00:00 1.5 2 Norte 9 Este 0 -- -- 92
2018-05-11 02:00:00 2.4 3 Este 7 Este 0 -- -- 92
2018-05-11 01:00:00 3.6 3 Nordeste 10 Este 0 -- -- 90
2018-05-11 00:00:00 4.8 0 Calma 6 Este 0 -- -- 88
2018-05-10 23:00:00 6.3 0 Calma 6 Este 0 -- -- 83
2018-05-10 22:00:00 8.1 7 Sudeste 15 Sudeste 0 -- -- 78
2018-05-10 21:00:00 10.7 10 Sudeste 21 Sudeste 0 -- -- 68
2018-05-10 20:00:00 12.2 11 Sudeste 29 Sudeste 0 -- -- 59
2018-05-10 19:00:00 13 13 Sudeste 30 Sudeste 0 -- -- 53
2018-05-10 18:00:00 12.6 15 Sudeste 35 Sudeste 0 -- -- 58
2018-05-10 17:00:00 12.5 18 Sur 40 Sur 0 -- -- 59
2018-05-10 16:00:00 12.1 21 Sudeste 41 Sur 0 -- -- 58
2018-05-10 15:00:00 11.9 20 Sudeste 42 Sudeste 0 -- -- 63
2018-05-10 14:00:00 11 22 Sur 46 Sur 0 -- -- 66
2018-05-10 13:00:00 10.4 22 Sur 39 Sur 0 -- -- 73
2018-05-10 12:00:00 10 23 Sur 40 Sudeste 0 -- -- 75
2018-05-10 11:00:00 9.4 21 Sur 38 Sudeste 0 -- -- 79
2018-05-10 10:00:00 9.8 15 Sur 28 Sur 0 -- -- 78
2018-05-10 09:00:00 8.4 12 Sudeste 27 Este 0 -- -- 85
2018-05-10 08:00:00 2 13 Este 18 Este 0 -- -- 96
2018-05-10 07:00:00 2.2 8 Este 14 Este 0 -- -- 94
2018-05-10 06:00:00 3.2 3 Sudeste 6 Norte 0 -- -- 94
2018-05-10 05:00:00 3.6 0 Calma 4 Sudeste 0 -- -- 90
2018-05-10 04:00:00 5.3 4 Norte 22 Sur 0 -- -- 85
2018-05-10 03:00:00 6.6 12 Sur 31 Sur 0 -- -- 85
2018-05-10 02:00:00 7.1 14 Sudeste 28 Sudeste 0 -- -- 90
2018-05-10 01:00:00 7.8 12 Sur 32 Sur 0 -- -- 88
2018-05-10 00:00:00 8.3 18 Sur 33 Sudeste 0 -- -- 90
2018-05-09 23:00:00 8.7 16 Sur 35 Sudeste 0 -- -- 88
2018-05-09 22:00:00 8.6 21 Sudeste 33 Sur 0 -- -- 92
2018-05-09 21:00:00 10 18 Sur 31 Sur 0 -- -- 84
2018-05-09 20:00:00 11.5 15 Sur 32 Sur 0 -- -- 84
2018-05-09 19:00:00 12.7 15 Sur 37 Sudeste 0 -- -- 78
2018-05-09 18:00:00 14 20 Sur 38 Sur 0 -- -- 77
2018-05-09 17:00:00 16.1 15 Sudeste 35 Sur 0 -- -- 72
2018-05-09 16:00:00 18.3 19 Sudeste 33 Sur 0 -- -- 63
2018-05-09 15:00:00 18.7 9 Sur 24 Sudeste 0 -- -- 58
2018-05-09 14:00:00 17.8 7 Sur 20 Sur 0 -- -- 59
2018-05-09 13:00:00 16.3 5 Oeste 16 Sudoeste 0 -- -- 60
2018-05-09 12:00:00 14.7 5 Sudoeste 19 Sur 0 -- -- 70
2018-05-09 11:00:00 13.1 8 Sur 13 Sudoeste 0 -- -- 79
2018-05-09 10:00:00 10.5 4 Oeste 9 Norte 0 -- -- 88
2018-05-09 09:00:00 7.7 2 Sudoeste 9 Este 0 -- -- 97
2018-05-09 08:00:00 3.8 2 Nordeste 12 Este 0 -- -- 100
2018-05-09 07:00:00 2.9 3 Este 15 Este 0 -- -- 97
2018-05-09 06:00:00 3.3 3 Este 13 Este 0 -- -- 96
2018-05-09 05:00:00 4 8 Este 12 Sudeste 0 -- -- 95
2018-05-09 04:00:00 5.5 2 Este 12 Oeste 0 -- -- 92
2018-05-09 03:00:00 6.7 3 Noroeste 16 Sudeste 0 -- -- 94
2018-05-09 02:00:00 7.3 6 Sudeste 19 Sudeste 0 -- -- 92
2018-05-09 01:00:00 8.1 12 Sur 21 Sudeste 0 -- -- 90
2018-05-09 00:00:00 8.2 13 Sur 27 Sudeste 0 -- -- 93
2018-05-08 23:00:00 8.8 13 Sudeste 27 Sudeste 0 -- -- 91
2018-05-08 22:00:00 10.4 11 Sur 23 Sur 0 -- -- 85
2018-05-08 21:00:00 11.5 11 Sur 34 Sur 0 -- -- 83
2018-05-08 20:00:00 13 19 Sur 36 Sur 0 -- -- 79
2018-05-08 19:00:00 14.2 19 Sur 37 Sur 0 -- -- 74
2018-05-08 18:00:00 12.6 18 Sur 42 Sudeste 0 -- -- 84
2018-05-08 17:00:00 14.1 23 Sur 47 Sur 0 -- -- 79
2018-05-08 16:00:00 15.5 26 Sur 42 Sur 0 -- -- 77
2018-05-08 15:00:00 15.7 23 Sur 40 Sur 0 -- -- 78
2018-05-08 14:00:00 16.5 23 Sur 41 Sudeste 0 -- -- 74
2018-05-08 13:00:00 16.8 14 Sur 32 Sur 0 -- -- 73
2018-05-08 12:00:00 16 15 Sur 27 Sur 0 -- -- 75
2018-05-08 11:00:00 15.3 16 Sudeste 29 Sudeste 0 -- -- 77
2018-05-08 10:00:00 13.8 10 Sur 19 Sur 0 -- -- 82
2018-05-08 09:00:00 9.6 0 Calma 5 Este 0 -- -- 96
2018-05-08 08:00:00 6 0 Calma 6 Sudeste 0 -- -- 97
2018-05-08 07:00:00 5.2 3 Nordeste 10 Este 0 -- -- 92
2018-05-08 06:00:00 6.3 6 Este 13 Este 0 -- -- 88
2018-05-08 05:00:00 6.6 12 Este 15 Este 0 -- -- 90
2018-05-08 04:00:00 7.3 0 Calma 10 Este 0 -- -- 87
2018-05-08 03:00:00 8.8 6 Este 11 Este 0 -- -- 86
2018-05-08 02:00:00 9.7 6 Este 10 Este 0 -- -- 89
2018-05-08 01:00:00 10.7 2 Este 7 Sudeste 0 -- -- 86
2018-05-08 00:00:00 11.9 2 Nordeste 13 Sudeste 0 -- -- 82
2018-05-07 23:00:00 13.6 9 Sur 14 Sur 0 -- -- 80
2018-05-07 22:00:00 15.9 5 Sudeste 14 Sur 0 -- -- 69
2018-05-07 21:00:00 17.7 9 Sudeste 26 Sur 0 -- -- 62
2018-05-07 20:00:00 19.8 14 Sur 31 Sur 0 -- -- 51
2018-05-07 19:00:00 21.6 14 Sudeste 34 Sur 0 -- -- 48
2018-05-07 18:00:00 22.6 18 Sur 32 Sudoeste 0 -- -- 42
2018-05-07 17:00:00 23 14 Sudeste 33 Sur 0 -- -- 42
2018-05-07 16:00:00 23.4 13 Sudeste 30 Sur 0 -- -- 37
2018-05-07 15:00:00 23.1 15 Sudeste 31 Sur 0 -- -- 40
2018-05-07 14:00:00 22.5 14 Sudeste 30 Sur 0 -- -- 43
2018-05-07 13:00:00 21.5 10 Sur 23 Sur 0 -- -- 47
2018-05-07 12:00:00 20.3 8 Sur 18 Sur 0 -- -- 53
2018-05-07 11:00:00 18 4 Sudoeste 9 Sudoeste 0 -- -- 64
2018-05-07 10:00:00 14.5 6 Noroeste 9 Noroeste 0 -- -- 78
2018-05-07 09:00:00 11.5 0 Calma 10 Este 0 -- -- 89
2018-05-07 08:00:00 6.9 2 Este 5 Este 0 -- -- 96
2018-05-07 07:00:00 6.8 0 Calma 5 Este 0 -- -- 93
2018-05-07 06:00:00 7.6 0 Calma 9 Sudeste 0 -- -- 92
2018-05-07 05:00:00 8.9 8 Este 14 Este 0 -- -- 94
2018-05-07 04:00:00 9.2 2 Nordeste 12 Este 0 -- -- 91
2018-05-07 03:00:00 9.1 3 Este 11 Este 0 -- -- 92
2018-05-07 02:00:00 9.4 2 Este 8 Este 0 -- -- 89
2018-05-07 01:00:00 10.7 0 Calma 4 Este 0 -- -- 88
2018-05-07 00:00:00 12 0 Calma 11 Sur 0 -- -- 85
2018-05-06 23:00:00 14 7 Sur 15 Sudeste 0 -- -- 81
2018-05-06 22:00:00 15.5 8 Sur 18 Sudeste 0 -- -- 74
2018-05-06 21:00:00 17.8 9 Sur 19 Sur 0 -- -- 68
2018-05-06 20:00:00 20.1 12 Sudeste 22 Sudeste 0 -- -- 60
2018-05-06 19:00:00 21.8 10 Sudeste 29 Sudeste 0 -- -- 55
2018-05-06 18:00:00 22.1 4 Sudeste 18 Sur 0 -- -- 46
2018-05-06 17:00:00 22.5 9 Oeste 16 Noroeste 0 -- -- 44
2018-05-06 16:00:00 22.4 8 Oeste 14 Oeste 0 -- -- 46
2018-05-06 15:00:00 20.8 7 Sudoeste 15 Oeste 0 -- -- 49
2018-05-06 14:00:00 20.5 6 Oeste 18 Oeste 0 -- -- 56
2018-05-06 13:00:00 18.9 6 Oeste 21 Sudoeste 0.2 -- -- 58
2018-05-06 12:00:00 17 6 Sudoeste 14 Sudoeste 0 -- -- 65
2018-05-06 11:00:00 15.3 6 Sudoeste 15 Sudoeste 0 -- -- 71
2018-05-06 10:00:00 12.6 5 Sudoeste 9 Sudoeste 0 -- -- 81
2018-05-06 09:00:00 8.4 0 Calma 5 Sudeste 0 -- -- 93
2018-05-06 08:00:00 6.3 5 Este 11 Este 0 -- -- 97
2018-05-06 07:00:00 5 0 Calma 3 Sudeste 0 -- -- 94
2018-05-06 06:00:00 5.7 0 Calma 4 Sudeste 0 -- -- 93
2018-05-06 05:00:00 6.7 0 Calma 6 Sudeste 0 -- -- 91
2018-05-06 04:00:00 7.5 4 Sudeste 6 Sudeste 0 -- -- 91
2018-05-06 03:00:00 8.9 2 Oeste 25 Sudeste 0 -- -- 86
2018-05-06 02:00:00 9 9 Sudeste 18 Sudeste 0 -- -- 86
2018-05-06 01:00:00 9.3 5 Sudeste 16 Sudeste 0 -- -- 85
2018-05-06 00:00:00 9.9 10 Sudeste 21 Sudeste 0 -- -- 84
2018-05-05 23:00:00 10.3 8 Sudeste 23 Sudeste 0 -- -- 82
2018-05-05 22:00:00 11.2 12 Sudeste 17 Este 0 -- -- 79
2018-05-05 21:00:00 13.1 8 Sudeste 18 Sudeste 0 -- -- 72
2018-05-05 20:00:00 14.3 5 Sudeste 27 Sur 0 -- -- 66
2018-05-05 19:00:00 15.2 15 Sur 34 Sur 0 -- -- 63
2018-05-05 18:00:00 16.5 17 Sur 35 Sudeste 0 -- -- 59
2018-05-05 17:00:00 16.7 16 Sudeste 37 Sur 0 -- -- 58
2018-05-05 16:00:00 16.4 16 Sudeste 36 Sur 0 -- -- 59
2018-05-05 15:00:00 16 19 Sudeste 36 Sudeste 0 -- -- 60
2018-05-05 14:00:00 15.8 15 Sudeste 42 Sur 0 -- -- 58
2018-05-05 13:00:00 14.9 23 Sur 39 Sur 0 -- -- 60
2018-05-05 12:00:00 13.5 21 Sur 37 Sur 0 -- -- 62
2018-05-05 11:00:00 12.1 21 Sur 36 Sur 0 -- -- 64
2018-05-05 10:00:00 10.8 16 Sur 27 Sur 0 -- -- 69
2018-05-05 09:00:00 8.4 8 Sur 15 Sur 0 -- -- 77
2018-05-05 08:00:00 3.3 3 Norte 14 Sur 0 -- -- 90
2018-05-05 07:00:00 2 7 Este 17 Sudeste 0 -- -- 88
2018-05-05 06:00:00 3.6 8 Sur 15 Sur 0 -- -- 84
2018-05-05 05:00:00 3.6 5 Sur 13 Sudoeste 0 -- -- 87
2018-05-05 04:00:00 4.2 8 Sur 22 Sur 0 -- -- 87
2018-05-05 03:00:00 4.8 11 Sur 27 Sur 0 -- -- 83
2018-05-05 02:00:00 4.7 12 Sur 22 Oeste 0 -- -- 86
2018-05-05 01:00:00 4.8 9 Sur 19 Sudoeste 0 -- -- 87
2018-05-05 00:00:00 5.2 8 Sur 30 Sudeste 0 -- -- 83
2018-05-04 23:00:00 5.6 12 Sur 28 Sur 0 -- -- 82
2018-05-04 22:00:00 6.1 13 Sudeste 32 Sur 0 -- -- 81
2018-05-04 21:00:00 7.2 18 Sur 34 Sur 0 -- -- 76
2018-05-04 20:00:00 9.2 11 Sur 38 Sudeste 0 -- -- 67
2018-05-04 19:00:00 10.1 23 Sur 37 Sudeste 0 -- -- 62
2018-05-04 18:00:00 11.2 16 Sudeste 43 Sudeste 0 -- -- 60
2018-05-04 17:00:00 11.2 15 Sudeste 39 Este 0 -- -- 60
2018-05-04 16:00:00 11.4 17 Sudeste 38 Sudeste 0 -- -- 63
2018-05-04 15:00:00 10.5 19 Sudeste 36 Este 0 -- -- 64
2018-05-04 14:00:00 9 13 Sudeste 39 Sudeste 0 -- -- 68
2018-05-04 13:00:00 9.2 19 Sudeste 43 Sur 0 -- -- 65
2018-05-04 12:00:00 7.3 15 Sudeste 32 Sudeste 0 -- -- 69
2018-05-04 11:00:00 6.6 19 Sudeste 35 Sudeste 0 -- -- 70
2018-05-04 10:00:00 6 13 Sudeste 38 Este 0 -- -- 70
2018-05-04 09:00:00 5.5 11 Sudeste 24 Sudeste 0 -- -- 77
2018-05-04 08:00:00 4.7 7 Sur 21 Sur 0 -- -- 78
2018-05-04 07:00:00 4.9 9 Sur 23 Sudeste 0 -- -- 79
2018-05-04 06:00:00 5 9 Sur 24 Sudeste 0 -- -- 74
2018-05-04 05:00:00 4.2 12 Sudeste 36 Sur 0 -- -- 72
2018-05-04 04:00:00 4.6 12 Sudeste 31 Sudeste 0 -- -- 75
2018-05-04 03:00:00 4.6 10 Sur 28 Sudeste 0 -- -- 75
2018-05-04 02:00:00 4.5 12 Sudeste 27 Sudeste 0 -- -- 69
2018-05-04 01:00:00 4.8 11 Sudeste 34 Sur 0 -- -- 68
2018-05-04 00:00:00 4.2 10 Sur 28 Sur 0 -- -- 75
2018-05-03 23:00:00 5 11 Sur 31 Sur 0 -- -- 70
2018-05-03 22:00:00 5.2 14 Sur 25 Sur 0 -- -- 68
2018-05-03 21:00:00 6.1 11 Sur 34 Sudeste 0 -- -- 70
2018-05-03 20:00:00 8 13 Sudeste 45 Sudeste 0 -- -- 61
2018-05-03 19:00:00 8.3 15 Sudeste 39 Sudeste 0 -- -- 63
2018-05-03 18:00:00 9.9 16 Sudeste 42 Sudeste 0 -- -- 57
2018-05-03 17:00:00 10.3 21 Sudeste 40 Sudeste 0 -- -- 60
2018-05-03 16:00:00 9.9 17 Sudeste 41 Sur 0 -- -- 68
2018-05-03 15:00:00 10 24 Sudeste 50 Este 0 -- -- 61
2018-05-03 14:00:00 10.3 18 Sudeste 45 Este 0 -- -- 65
2018-05-03 13:00:00 10.6 13 Sudeste 42 Sudeste 0 -- -- 59
2018-05-03 12:00:00 9.1 22 Sur 38 Sur 0 -- -- 66
2018-05-03 11:00:00 9 12 Sudeste 31 Sudeste 0 -- -- 67
2018-05-03 10:00:00 8 12 Sudeste 29 Sudeste 0 -- -- 63
2018-05-03 09:00:00 6.2 12 Sur 28 Sur 0 -- -- 79
2018-05-03 08:00:00 4.6 9 Sudeste 26 Sudeste 0 -- -- 88
2018-05-03 07:00:00 4.4 15 Sudeste 24 Sudeste 0 -- -- 90
2018-05-03 06:00:00 5.1 10 Sur 21 Sudeste 0 -- -- 88
2018-05-03 05:00:00 5 6 Sudeste 12 Sudeste 0 -- -- 92
2018-05-03 04:00:00 5.9 0 Calma 14 Sudeste 0 -- -- 89
2018-05-03 03:00:00 6.8 8 Sudeste 20 Sudeste 0 -- -- 89
2018-05-03 02:00:00 7.7 14 Sur 19 Sur 0 -- -- 88
2018-05-03 01:00:00 8.8 4 Norte 8 Norte 0 -- -- 93
2018-05-03 00:00:00 8.6 0 Calma 5 Este 0 -- -- 93
2018-05-02 23:00:00 9.3 4 Sudeste 11 Sur 0 -- -- 90
2018-05-02 22:00:00 9.9 5 Sudeste 15 Sudeste 0 -- -- 87
2018-05-02 21:00:00 11.1 8 Sudeste 18 Sudeste 0 -- -- 81
2018-05-02 20:00:00 12 8 Sudeste 16 Sur 0 -- -- 73
2018-05-02 19:00:00 12.4 6 Sudoeste 20 Sur 0 -- -- 71
2018-05-02 18:00:00 12.3 12 Sur 20 Sur 0 -- -- 73
2018-05-02 17:00:00 13.4 5 Nordeste 14 Norte 0 -- -- 63
2018-05-02 16:00:00 13.3 3 Noroeste 12 Norte 0 -- -- 59
2018-05-02 15:00:00 12.9 6 Norte 18 Norte 0 -- -- 61
2018-05-02 14:00:00 11.9 9 Noroeste 17 Norte 0 -- -- 63
2018-05-02 13:00:00 11.3 10 Noroeste 23 Noroeste 0 -- -- 60
2018-05-02 12:00:00 10.1 8 Norte 23 Norte 0 -- -- 65
2018-05-02 11:00:00 8 14 Noroeste 28 Noroeste 0 -- -- 65
2018-05-02 10:00:00 7.7 13 Noroeste 22 Noroeste 0 -- -- 64
2018-05-02 09:00:00 7.3 10 Noroeste 26 Norte 0 -- -- 60
2018-05-02 08:00:00 6.8 10 Norte 17 Norte 0 -- -- 62
2018-05-02 07:00:00 7.1 9 Norte 21 Norte 0 -- -- 62
2018-05-02 06:00:00 7.2 14 Norte 26 Nordeste 0 -- -- 62
2018-05-02 05:00:00 6.4 9 Noroeste 17 Norte 0 -- -- 73
2018-05-02 04:00:00 5.9 4 Noroeste 10 Noroeste 0 -- -- 76
2018-05-02 03:00:00 6.4 5 Noroeste 14 Norte 0 -- -- 73
2018-05-02 02:00:00 6.9 6 Noroeste 13 Noroeste 0 -- -- 70
2018-05-02 01:00:00 7.4 3 Sur 12 Oeste 0 -- -- 65
2018-05-02 00:00:00 7.7 3 Noroeste 13 Nordeste 0 -- -- 61
2018-05-01 23:00:00 8 6 Oeste 19 Noroeste 0 -- -- 59
2018-05-01 22:00:00 8.5 3 Oeste 13 Noroeste 0 -- -- 57
2018-05-01 21:00:00 9.9 9 Noroeste 23 Noroeste 0 -- -- 48
2018-05-01 20:00:00 11.4 12 Norte 28 Norte 0 -- -- 45
2018-05-01 19:00:00 12.1 12 Noroeste 28 Oeste 0 -- -- 46
2018-05-01 18:00:00 12.4 10 Oeste 24 Norte 0 -- -- 52
2018-05-01 17:00:00 11.9 10 Noroeste 22 Noroeste 0 -- -- 49
2018-05-01 16:00:00 11.5 9 Oeste 18 Oeste 0 -- -- 49
2018-05-01 15:00:00 9.9 9 Noroeste 21 Noroeste 0 -- -- 50
2018-05-01 14:00:00 9.7 8 Norte 18 Norte 0 -- -- 53
2018-05-01 13:00:00 8.7 6 Sur 15 Sudoeste 0 -- -- 52
2018-05-01 12:00:00 7.3 9 Sudoeste 17 Sur 0 -- -- 60
2018-05-01 11:00:00 5.6 3 Este 9 Norte 0 -- -- 71
2018-05-01 10:00:00 4 3 Sudoeste 8 Sur 0 -- -- 83
2018-05-01 09:00:00 1.1 2 Sur 9 Este 0 -- -- 94
2018-05-01 08:00:00 -2.3 6 Este 12 Este 0 -- -- 97
2018-05-01 07:00:00 -2.4 5 Este 10 Este 0 -- -- 97
2018-05-01 06:00:00 -2 3 Este 15 Este 0 -- -- 97
2018-05-01 05:00:00 -1.6 5 Este 16 Sudeste 0 -- -- 97
2018-05-01 04:00:00 -1.2 3 Norte 5 Sudeste 0 -- -- 97
2018-05-01 03:00:00 -0.7 3 Norte 11 Este 0 -- -- 97
2018-05-01 02:00:00 -0.4 0 Calma 6 Sudeste 0 -- -- 96
2018-05-01 01:00:00 0.6 2 Este 5 Norte 0 -- -- 97
2018-05-01 00:00:00 -0.1 0 Calma 4 Sudeste 0 -- -- 93
2018-04-30 23:00:00 1.2 3 Este 13 Sur 0 -- -- 91
2018-04-30 22:00:00 2.6 12 Sudeste 20 Sudeste 0 -- -- 90
2018-04-30 21:00:00 4.3 5 Sudeste 17 Sudeste 0 -- -- 81
2018-04-30 20:00:00 5.3 8 Sudeste 29 Sudeste 0 -- -- 78
2018-04-30 19:00:00 5.9 13 Sudeste 26 Sur 0 -- -- 79
2018-04-30 18:00:00 6.7 13 Sur 32 Sur 0 -- -- 80
2018-04-30 17:00:00 6.8 7 Sur 14 Sur 0 -- -- 79
2018-04-30 16:00:00 6 3 Sudoeste 15 Noroeste 0.2 -- -- 82
2018-04-30 15:00:00 4.7 7 Norte 15 Norte 0.8 -- -- 89
2018-04-30 14:00:00 3.8 8 Norte 19 Norte 0.4 -- -- 89
2018-04-30 13:00:00 3.8 10 Norte 23 Norte 0 -- -- 87
2018-04-30 12:00:00 4.1 13 Norte 26 Oeste 0 -- -- 82
2018-04-30 11:00:00 3.8 11 Noroeste 18 Noroeste 0 -- -- 84
2018-04-30 10:00:00 2.8 9 Noroeste 20 Norte 0 -- -- 88
2018-04-30 09:00:00 1.7 8 Norte 15 Oeste 0 -- -- 92
2018-04-30 08:00:00 1.3 3 Norte 23 Noroeste 0 -- -- 91
2018-04-30 07:00:00 1.4 14 Noroeste 23 Norte 0.2 -- -- 91
2018-04-30 06:00:00 1.6 2 Sur 8 Sur 0 -- -- 93
2018-04-30 05:00:00 1.7 7 Oeste 21 Noroeste 0 -- -- 91
2018-04-30 04:00:00 2.1 8 Norte 26 Norte 0 -- -- 92
2018-04-30 03:00:00 2.6 7 Noroeste 21 Noroeste 0 -- -- 94
2018-04-30 02:00:00 2.5 12 Norte 22 Norte 0.2 -- -- 94
2018-04-30 01:00:00 2.9 8 Norte 19 Noroeste 1.8 -- -- 94
2018-04-30 00:00:00 3 5 Norte 18 Norte 3.2 -- -- 93
2018-04-29 23:00:00 4 10 Norte 19 Norte 0.4 -- -- 89
2018-04-29 22:00:00 4.8 5 Nordeste 22 Norte 0 -- -- 88
2018-04-29 21:00:00 5.1 4 Norte 22 Norte 0.2 -- -- 88
2018-04-29 20:00:00 5.6 5 Este 15 Noroeste 1.2 -- -- 86
2018-04-29 19:00:00 6.1 6 Norte 40 Norte 0 -- -- 82
2018-04-29 18:00:00 9.6 15 Norte 27 Nordeste 0 -- -- 66
2018-04-29 17:00:00 9 22 Norte 38 Norte 0 -- -- 65
2018-04-29 16:00:00 11.1 21 Norte 39 Noroeste 0 -- -- 61
2018-04-29 15:00:00 10.4 19 Norte 36 Noroeste 0 -- -- 61
2018-04-29 14:00:00 8.9 19 Norte 36 Norte 0 -- -- 68
2018-04-29 13:00:00 8.7 8 Norte 27 Norte 0 -- -- 66
2018-04-29 12:00:00 8.4 4 Sudoeste 13 Sudoeste 0 -- -- 69
2018-04-29 11:00:00 7.5 4 Noroeste 9 Noroeste 0 -- -- 78
2018-04-29 10:00:00 5.3 3 Norte 9 Noroeste 0 -- -- 87
2018-04-29 09:00:00 4.1 2 Nordeste 10 Este 0 -- -- 93
2018-04-29 08:00:00 2.7 4 Este 8 Este 0 -- -- 98
2018-04-29 07:00:00 2 3 Este 9 Este 0 -- -- 98
2018-04-29 06:00:00 2 3 Este 8 Este 0 -- -- 98
2018-04-29 05:00:00 1.1 5 Este 10 Este 0 -- -- 97
2018-04-29 04:00:00 0.3 4 Este 9 Este 0 -- -- 95
2018-04-29 03:00:00 1.4 4 Este 8 Este 0 -- -- 94
2018-04-29 02:00:00 2.3 3 Este 9 Sudeste 0 -- -- 90
2018-04-29 01:00:00 3.6 4 Sur 18 Sudeste 0 -- -- 91
2018-04-29 00:00:00 4.3 11 Sudeste 21 Sur 0 -- -- 90
2018-04-28 23:00:00 4.4 0 Calma 3 Noroeste 0 -- -- 88
2018-04-28 22:00:00 5 0 Calma 8 Sudeste 0 -- -- 83
2018-04-28 21:00:00 6.9 4 Este 25 Nordeste 0 -- -- 77
2018-04-28 20:00:00 8.6 9 Norte 25 Norte 0 -- -- 72
2018-04-28 19:00:00 11.3 17 Norte 41 Noroeste 0 -- -- 59
2018-04-28 18:00:00 12.1 15 Oeste 26 Oeste 0 -- -- 53
2018-04-28 17:00:00 12.1 7 Sudoeste 21 Sudeste 0 -- -- 65
2018-04-28 16:00:00 10.8 11 Sudoeste 20 Sur 0 -- -- 71
2018-04-28 15:00:00 9.3 10 Sur 18 Sudeste 0 -- -- 78
2018-04-28 14:00:00 7.2 10 Sudeste 21 Sudeste 0 -- -- 86
2018-04-28 13:00:00 6.4 9 Sudeste 23 Sur 0 -- -- 89
2018-04-28 12:00:00 6.5 12 Sudeste 26 Sudeste 0 -- -- 88
2018-04-28 11:00:00 6 16 Sudeste 26 Sudeste 0 -- -- 88
2018-04-28 10:00:00 5.8 10 Sudeste 22 Sur 0 -- -- 90
2018-04-28 09:00:00 5 10 Sur 25 Sudeste 0 -- -- 94
2018-04-28 08:00:00 4.9 9 Sur 18 Sur 0 -- -- 92
2018-04-28 07:00:00 5 8 Sudeste 20 Sur 0 -- -- 90
2018-04-28 06:00:00 4.9 12 Sur 23 Sur 0 -- -- 90
2018-04-28 05:00:00 4.9 11 Sur 22 Sudeste 0 -- -- 90
2018-04-28 04:00:00 5.1 10 Sur 22 Sudeste 0 -- -- 90
2018-04-28 03:00:00 5 9 Sur 25 Sur 0 -- -- 90
2018-04-28 02:00:00 5 14 Sur 31 Sudeste 0 -- -- 91
2018-04-28 01:00:00 5.2 14 Sur 29 Sudeste 0 -- -- 90
2018-04-28 00:00:00 5.4 14 Sur 30 Sudeste 0 -- -- 89
2018-04-27 23:00:00 5.5 14 Sur 30 Sudeste 0 -- -- 89
2018-04-27 22:00:00 5.5 13 Sudeste 34 Sur 0 -- -- 90
2018-04-27 21:00:00 6.2 12 Sudeste 35 Sur 0 -- -- 88
2018-04-27 20:00:00 7 15 Sur 37 Sur 0 -- -- 85
2018-04-27 19:00:00 8.9 18 Sur 42 Sudeste 0 -- -- 80
2018-04-27 18:00:00 10.2 24 Sur 42 Sur 0 -- -- 76
2018-04-27 17:00:00 11.5 24 Sur 44 Sur 0 -- -- 75
2018-04-27 16:00:00 12.7 24 Sudeste 41 Sudeste 0 -- -- 72
2018-04-27 15:00:00 14.4 21 Sudeste 38 Sur 0 -- -- 70
2018-04-27 14:00:00 14.7 22 Sudeste 37 Sur 0 -- -- 66
2018-04-27 13:00:00 14.5 18 Sur 30 Sur 0 -- -- 66
2018-04-27 12:00:00 13.7 10 Sudeste 23 Sudeste 0 -- -- 70
2018-04-27 11:00:00 12 10 Sur 21 Sur 0 -- -- 74
2018-04-27 10:00:00 10.4 8 Sur 15 Sur 0 -- -- 78
2018-04-27 09:00:00 7.4 2 Sudoeste 6 Sudoeste 0 -- -- 97
2018-04-27 08:00:00 3.6 0 Calma 12 Este 0 -- -- 97
2018-04-27 07:00:00 3.2 2 Este 11 Nordeste 0 -- -- 95
2018-04-27 06:00:00 4.3 7 Este 14 Este 0 -- -- 96
2018-04-27 05:00:00 4.2 2 Norte 14 Este 0 -- -- 94
2018-04-27 04:00:00 4.8 2 Norte 5 Sudeste -- -- -- 93
2018-04-27 03:00:00 5.6 4 Sudeste 13 Este 0 -- -- 92
2018-04-27 02:00:00 6.1 6 Este 12 Este 0 -- -- 92
2018-04-27 01:00:00 6.8 0 Calma 6 Este 0 -- -- 88
2018-04-27 00:00:00 8.1 0 Calma 12 Este 0 -- -- 85
2018-04-26 23:00:00 9.2 0 Calma 3 Nordeste 0 -- -- 82
2018-04-26 22:00:00 10.8 0 Calma 9 Sudeste 0 -- -- 78
2018-04-26 21:00:00 13.6 7 Sudeste 14 Sudeste 0 -- -- 69
2018-04-26 20:00:00 16.3 8 Sudeste 17 Sudeste 0 -- -- 58
2018-04-26 19:00:00 16.7 11 Sudeste 21 Sudeste 0 -- -- 58
2018-04-26 18:00:00 16.7 11 Sudeste 23 Sur 0 -- -- 59
2018-04-26 17:00:00 16 13 Sudeste 32 Sur 0 -- -- 58
2018-04-26 16:00:00 14.8 20 Sur 32 Sudeste 0 -- -- 60
2018-04-26 15:00:00 13.8 18 Sudeste 39 Sur 0 -- -- 63
2018-04-26 14:00:00 12.5 21 Sur 36 Sudeste 0 -- -- 63
2018-04-26 13:00:00 11.1 19 Sudeste 40 Sudeste 0 -- -- 68
2018-04-26 12:00:00 9.7 20 Sur 35 Sudeste 0 -- -- 75
2018-04-26 11:00:00 8.4 20 Sudeste 35 Sur 0 -- -- 77
2018-04-26 10:00:00 7.2 19 Sur 33 Sur 0 -- -- 80
2018-04-26 09:00:00 7.3 15 Sudeste 36 Sur 0 -- -- 82
2018-04-26 08:00:00 6.2 18 Sur 33 Sur 0 -- -- 85
2018-04-26 07:00:00 6.5 12 Sudeste 33 Sudeste 0 -- -- 88
2018-04-26 06:00:00 6.8 20 Sudeste 30 Sudeste 0 -- -- 86
2018-04-26 05:00:00 6.9 17 Sur 31 Sur 0 -- -- 91
2018-04-26 04:00:00 6.7 15 Sur 27 Sudeste 0 -- -- 92
2018-04-26 03:00:00 7 14 Sur 27 Sur 0 -- -- 92
2018-04-26 02:00:00 7.1 16 Sur 32 Sur 0 -- -- 92
2018-04-26 01:00:00 7.6 17 Sur 33 Sur 0 -- -- 91
2018-04-26 00:00:00 7.8 17 Sur 36 Sur 0 -- -- 92
2018-04-25 23:00:00 8 23 Sur 40 Sudeste 0 -- -- 92
2018-04-25 22:00:00 8.5 21 Sur 38 Sudeste 0 -- -- 91
2018-04-25 21:00:00 9.3 20 Sur 46 Sudeste 0 -- -- 87
2018-04-25 20:00:00 10.7 27 Sur 47 Sur 0 -- -- 81
2018-04-25 19:00:00 11.9 25 Sur 51 Sudeste 0 -- -- 78
2018-04-25 18:00:00 12.7 26 Sur 50 Sur 0 -- -- 79
2018-04-25 17:00:00 13.8 26 Sur 51 Sudeste 0 -- -- 77
2018-04-25 16:00:00 15.2 23 Sur 45 Sudeste 0 -- -- 75
2018-04-25 15:00:00 15.4 21 Sur 40 Sur 0 -- -- 74
2018-04-25 14:00:00 14.7 25 Sur 40 Sur 0 -- -- 76
2018-04-25 13:00:00 14.8 17 Sur 30 Sudeste 0 -- -- 76
2018-04-25 12:00:00 13.3 12 Sur 27 Sudeste 0 -- -- 82
2018-04-25 11:00:00 11.7 14 Sudeste 24 Sudeste 0 -- -- 86
2018-04-25 10:00:00 11 14 Sudeste 28 Sur 0 -- -- 90
2018-04-25 09:00:00 10.3 12 Sur 28 Sudeste 0 -- -- 94
2018-04-25 08:00:00 9.7 8 Sur 25 Sur 0 -- -- 95
2018-04-25 07:00:00 9.6 10 Sur 22 Sur 0 -- -- 97
2018-04-25 06:00:00 9.2 8 Sur 18 Sur 0 -- -- 96
2018-04-25 05:00:00 9.3 3 Sur 17 Sur 0 -- -- 95
2018-04-25 04:00:00 8.7 6 Sudeste 14 Este 0 -- -- 94
2018-04-25 03:00:00 8.8 2 Este 12 Este 0 -- -- 88
2018-04-25 02:00:00 10.3 3 Este 11 Este 0 -- -- 84
2018-04-25 01:00:00 11.2 2 Norte 8 Este 0 -- -- 84
2018-04-25 00:00:00 12.8 3 Norte 15 Sur 0 -- -- 79
2018-04-24 23:00:00 14.7 9 Sur 18 Sur 0 -- -- 72
2018-04-24 22:00:00 15.5 9 Sur 20 Sur 0 -- -- 70
2018-04-24 21:00:00 18.2 9 Sur 23 Sudeste 0 -- -- 61
2018-04-24 20:00:00 20.9 15 Sur 28 Sudeste 0 -- -- 54
2018-04-24 19:00:00 24.4 8 Oeste 18 Oeste 0 -- -- 41
2018-04-24 18:00:00 24.5 10 Oeste 22 Oeste 0 -- -- 38
2018-04-24 17:00:00 24.7 12 Noroeste 21 Oeste 0 -- -- 37
2018-04-24 16:00:00 24.5 8 Oeste 21 Oeste 0 -- -- 39
2018-04-24 15:00:00 23.6 9 Noroeste 18 Noroeste 0 -- -- 44
2018-04-24 14:00:00 22.8 7 Oeste 18 Noroeste 0 -- -- 44
2018-04-24 13:00:00 21.4 5 Oeste 12 Noroeste 0 -- -- 52
2018-04-24 12:00:00 19.1 5 Oeste 12 Oeste 0 -- -- 61
2018-04-24 11:00:00 15.4 3 Noroeste 6 Sudeste 0 -- -- 75
2018-04-24 10:00:00 12.1 3 Sudoeste 6 Sudoeste 0 -- -- 86
2018-04-24 09:00:00 9.2 0 Calma 9 Este 0 -- -- 96
2018-04-24 08:00:00 7.5 5 Este 8 Este 0 -- -- 97
2018-04-24 07:00:00 9 2 Nordeste 10 Norte 0 -- -- 98
2018-04-24 06:00:00 9.9 3 Este 11 Sudeste 0 -- -- 99
2018-04-24 05:00:00 9.7 4 Este 12 Este 0 -- -- 99
2018-04-24 04:00:00 10.6 7 Sudeste 13 Este 0 -- -- 98
2018-04-24 03:00:00 10.2 8 Este 13 Sudeste 0 -- -- 99
2018-04-24 02:00:00 10.7 5 Sudeste 13 Sudeste 0 -- -- 98
2018-04-24 01:00:00 10.9 2 Nordeste 14 Sudeste 0 -- -- 97
2018-04-24 00:00:00 11 7 Sudeste 13 Sur 0 -- -- 95
2018-04-23 23:00:00 11.8 2 Noroeste 22 Sur 0 -- -- 87
2018-04-23 22:00:00 13 8 Sudeste 16 Sur 0 -- -- 85
2018-04-23 21:00:00 14.4 8 Sudeste 19 Sudeste 0 -- -- 79
2018-04-23 20:00:00 16.8 10 Sudeste 24 Sudeste 0 -- -- 66
2018-04-23 19:00:00 18.6 12 Sudeste 31 Sur 0 -- -- 65
2018-04-23 18:00:00 19.4 17 Sudeste 34 Sur 0 -- -- 64
2018-04-23 17:00:00 20.3 14 Sur 25 Sudoeste 0 -- -- 62
2018-04-23 16:00:00 19.5 12 Sur 21 Sudoeste 0 -- -- 64
2018-04-23 15:00:00 18.2 12 Sur 22 Sur 0 -- -- 72
2018-04-23 14:00:00 17 12 Sur 21 Sur 0 -- -- 76
2018-04-23 13:00:00 15.9 10 Sudoeste 19 Sudoeste 0 -- -- 80
2018-04-23 12:00:00 14 10 Sur 21 Sur 0 -- -- 87
2018-04-23 11:00:00 11.7 10 Sur 16 Sur 0 -- -- 94
2018-04-23 10:00:00 10 6 Sur 12 Sudoeste 0 -- -- 97
2018-04-23 09:00:00 7.7 2 Sudoeste 6 Este 0 -- -- 99
2018-04-23 08:00:00 5.2 0 Calma 5 Este 0 -- -- 97
2018-04-23 07:00:00 5.8 7 Este 14 Este 0 -- -- 97
2018-04-23 06:00:00 5.7 3 Este 8 Este 0 -- -- 96
2018-04-23 05:00:00 6.1 0 Calma 13 Este 0 -- -- 96
2018-04-23 04:00:00 7 0 Calma 8 Este 0 -- -- 96
2018-04-23 03:00:00 7.9 3 Este 6 Este 0 -- -- 95
2018-04-23 02:00:00 9.3 2 Este 6 Este 0 -- -- 95
2018-04-23 01:00:00 10.6 3 Este 11 Sudeste 0 -- -- 94
2018-04-23 00:00:00 11.5 6 Sudeste 24 Sudeste 0 -- -- 93
2018-04-22 23:00:00 12.3 8 Sudeste 21 Sur 0 -- -- 92
2018-04-22 22:00:00 12.3 0 Calma 6 Norte 0 -- -- 89
2018-04-22 21:00:00 13.3 6 Norte 23 Sudeste 0.4 -- -- 88
2018-04-22 20:00:00 15.4 7 Oeste 22 Noroeste 0.2 -- -- 74
2018-04-22 19:00:00 17.4 6 Oeste 22 Oeste 0 -- -- 62
2018-04-22 18:00:00 19.7 7 Norte 15 Norte 0 -- -- 55
2018-04-22 17:00:00 20 5 Norte 15 Noroeste 0 -- -- 52
2018-04-22 16:00:00 20.7 8 Noroeste 23 Noroeste 0 -- -- 51
2018-04-22 15:00:00 19.2 5 Norte 17 Norte 0 -- -- 58
2018-04-22 14:00:00 17.3 5 Oeste 10 Noroeste 0 -- -- 69
2018-04-22 13:00:00 15.4 5 Norte 20 Noroeste 0 -- -- 73
2018-04-22 12:00:00 15.3 15 Oeste 26 Oeste 0 -- -- 73
2018-04-22 11:00:00 13.9 8 Noroeste 14 Noroeste 0 -- -- 76
2018-04-22 10:00:00 10.8 0 Calma 12 Este 0 -- -- 84
2018-04-22 09:00:00 8 7 Este 11 Este 0 -- -- 92
2018-04-22 08:00:00 6.3 0 Calma 6 Este 0 -- -- 94
2018-04-22 07:00:00 6.6 6 Este 14 Este 0 -- -- 92
2018-04-22 06:00:00 6.3 0 Calma 12 Este 0 -- -- 92
2018-04-22 05:00:00 6.9 10 Este 14 Este 0 -- -- 94
2018-04-22 04:00:00 6.7 0 Calma 8 Este 0 -- -- 92
2018-04-22 03:00:00 7.6 3 Este 6 Este 0 -- -- 92
2018-04-22 02:00:00 8.5 0 Calma 9 Este 0 -- -- 88
2018-04-22 01:00:00 9.3 3 Este 10 Este 0 -- -- 88
2018-04-22 00:00:00 9.8 3 Nordeste 8 Este 0 -- -- 86